Terminal Aerodrome Forecast
Issued by NWS

Home | Current Version | Previous Version | Text Only | Print | Product List | Glossary Off
Versions: 1 2 3 4 5 6 7 8 9 10 11 12 13 14 15 16 17 18 19 20 21 22 23 24 25 26 27 28 29 30 31

000
FTUS43 KLOT 010533
TAFORD
TAF
KORD 010533Z 0106/0212 19003KT 6SM BR SKC
     FM010900 20003KT 4SM BR SCT040
     FM011300 22009KT P6SM SCT040
     FM020300 23006KT 6SM BR FEW040 SCT250=

USA.gov is the U.S. government's official web portal to all federal, state and local government web resources and services.